sensor_id;sensor_type;location;lat;lon;timestamp;temperature;humidity
46400;DHT22;32104;50.838;4.388;2023-03-04T00:02:11;6.30;99.90
46400;DHT22;32104;50.838;4.388;2023-03-04T00:04:39;6.30;99.90
46400;DHT22;32104;50.838;4.388;2023-03-04T00:07:07;6.20;99.90
46400;DHT22;32104;50.838;4.388;2023-03-04T00:09:37;6.30;99.90
46400;DHT22;32104;50.838;4.388;2023-03-04T00:12:03;6.30;99.90
46400;DHT22;32104;50.838;4.388;2023-03-04T00:14:29;6.30;99.90
46400;DHT22;32104;50.838;4.388;2023-03-04T00:16:55;6.40;99.90
46400;DHT22;32104;50.838;4.388;2023-03-04T00:19:27;6.40;99.90
46400;DHT22;32104;50.838;4.388;2023-03-04T00:21:56;6.10;99.90
46400;DHT22;32104;50.838;4.388;2023-03-04T00:24:28;6.10;99.90
46400;DHT22;32104;50.838;4.388;2023-03-04T00:26:54;6.20;99.90
46400;DHT22;32104;50.838;4.388;2023-03-04T00:29:20;6.30;99.90
46400;DHT22;32104;50.838;4.388;2023-03-04T00:31:46;6.20;99.90
46400;DHT22;32104;50.838;4.388;2023-03-04T00:34:12;6.20;99.90
46400;DHT22;32104;50.838;4.388;2023-03-04T00:36:41;6.30;99.90
46400;DHT22;32104;50.838;4.388;2023-03-04T00:39:11;6.30;99.90
46400;DHT22;32104;50.838;4.388;2023-03-04T00:41:39;6.30;99.90
46400;DHT22;32104;50.838;4.388;2023-03-04T00:44:05;6.40;99.90
46400;DHT22;32104;50.838;4.388;2023-03-04T00:46:33;6.30;99.90
46400;DHT22;32104;50.838;4.388;2023-03-04T00:48:59;6.30;99.90
46400;DHT22;32104;50.838;4.388;2023-03-04T00:51:30;6.30;99.90
46400;DHT22;32104;50.838;4.388;2023-03-04T00:54:05;6.30;99.90
46400;DHT22;32104;50.838;4.388;2023-03-04T00:56:34;6.50;99.90
46400;DHT22;32104;50.838;4.388;2023-03-04T00:59:00;6.40;99.90
46400;DHT22;32104;50.838;4.388;2023-03-04T01:01:27;6.40;99.90
46400;DHT22;32104;50.838;4.388;2023-03-04T01:03:52;6.50;99.90
46400;DHT22;32104;50.838;4.388;2023-03-04T01:06:39;6.50;99.90
46400;DHT22;32104;50.838;4.388;2023-03-04T01:09:05;6.30;99.90
46400;DHT22;32104;50.838;4.388;2023-03-04T01:11:31;6.30;99.90
46400;DHT22;32104;50.838;4.388;2023-03-04T01:13:56;6.30;99.90
46400;DHT22;32104;50.838;4.388;2023-03-04T01:16:22;6.40;99.90
46400;DHT22;32104;50.838;4.388;2023-03-04T01:19:00;6.50;99.90
46400;DHT22;32104;50.838;4.388;2023-03-04T01:21:26;6.50;99.90
46400;DHT22;32104;50.838;4.388;2023-03-04T01:23:52;6.60;99.90
46400;DHT22;32104;50.838;4.388;2023-03-04T01:26:20;6.50;99.90
46400;DHT22;32104;50.838;4.388;2023-03-04T01:28:48;6.50;99.90
46400;DHT22;32104;50.838;4.388;2023-03-04T01:31:14;6.60;99.90
46400;DHT22;32104;50.838;4.388;2023-03-04T01:33:42;6.60;99.90
46400;DHT22;32104;50.838;4.388;2023-03-04T01:36:08;6.60;99.90
46400;DHT22;32104;50.838;4.388;2023-03-04T01:38:34;6.70;99.90
46400;DHT22;32104;50.838;4.388;2023-03-04T01:41:00;6.70;99.90
46400;DHT22;32104;50.838;4.388;2023-03-04T01:43:28;6.80;99.90
46400;DHT22;32104;50.838;4.388;2023-03-04T01:45:57;6.80;99.90
46400;DHT22;32104;50.838;4.388;2023-03-04T01:48:27;6.80;99.90
46400;DHT22;32104;50.838;4.388;2023-03-04T01:50:53;6.90;99.90
46400;DHT22;32104;50.838;4.388;2023-03-04T01:53:23;6.90;99.90
46400;DHT22;32104;50.838;4.388;2023-03-04T01:55:52;6.80;99.90
46400;DHT22;32104;50.838;4.388;2023-03-04T01:58:19;6.90;99.90
46400;DHT22;32104;50.838;4.388;2023-03-04T02:00:45;6.80;99.90
46400;DHT22;32104;50.838;4.388;2023-03-04T02:03:13;6.90;99.90
46400;DHT22;32104;50.838;4.388;2023-03-04T02:05:49;7.00;99.90
46400;DHT22;32104;50.838;4.388;2023-03-04T02:08:24;7.10;99.90
46400;DHT22;32104;50.838;4.388;2023-03-04T02:10:50;7.00;99.90
46400;DHT22;32104;50.838;4.388;2023-03-04T02:13:17;7.00;99.90
46400;DHT22;32104;50.838;4.388;2023-03-04T02:15:45;7.00;99.90
46400;DHT22;32104;50.838;4.388;2023-03-04T02:18:15;6.90;99.90
46400;DHT22;32104;50.838;4.388;2023-03-04T02:21:32;7.00;99.90
46400;DHT22;32104;50.838;4.388;2023-03-04T02:26:40;6.90;99.90
46400;DHT22;32104;50.838;4.388;2023-03-04T02:29:09;6.80;99.90
46400;DHT22;32104;50.838;4.388;2023-03-04T02:31:40;6.70;99.90
46400;DHT22;32104;50.838;4.388;2023-03-04T02:34:12;6.70;99.90
46400;DHT22;32104;50.838;4.388;2023-03-04T02:36:39;6.70;99.90
46400;DHT22;32104;50.838;4.388;2023-03-04T02:39:21;6.60;99.90
46400;DHT22;32104;50.838;4.388;2023-03-04T02:41:55;6.60;99.90
46400;DHT22;32104;50.838;4.388;2023-03-04T02:44:29;6.70;99.90
46400;DHT22;32104;50.838;4.388;2023-03-04T02:46:58;6.60;99.90
46400;DHT22;32104;50.838;4.388;2023-03-04T02:49:29;6.70;99.90
46400;DHT22;32104;50.838;4.388;2023-03-04T02:54:34;6.70;99.90
46400;DHT22;32104;50.838;4.388;2023-03-04T02:57:08;6.80;99.90
46400;DHT22;32104;50.838;4.388;2023-03-04T02:59:39;6.70;99.90
46400;DHT22;32104;50.838;4.388;2023-03-04T03:02:12;6.60;99.90
46400;DHT22;32104;50.838;4.388;2023-03-04T03:04:39;6.60;99.90
46400;DHT22;32104;50.838;4.388;2023-03-04T03:07:05;6.60;99.90
46400;DHT22;32104;50.838;4.388;2023-03-04T03:09:31;6.70;99.90
46400;DHT22;32104;50.838;4.388;2023-03-04T03:12:15;6.70;99.90
46400;DHT22;32104;50.838;4.388;2023-03-04T03:14:41;6.80;99.90
46400;DHT22;32104;50.838;4.388;2023-03-04T03:17:07;6.70;99.90
46400;DHT22;32104;50.838;4.388;2023-03-04T03:19:35;6.60;99.90
46400;DHT22;32104;50.838;4.388;2023-03-04T03:22:01;6.60;99.90
46400;DHT22;32104;50.838;4.388;2023-03-04T03:24:27;6.60;99.90
46400;DHT22;32104;50.838;4.388;2023-03-04T03:26:53;6.70;99.90
46400;DHT22;32104;50.838;4.388;2023-03-04T03:29:19;6.70;99.90
46400;DHT22;32104;50.838;4.388;2023-03-04T03:31:45;6.80;99.90
46400;DHT22;32104;50.838;4.388;2023-03-04T03:34:11;6.80;99.90
46400;DHT22;32104;50.838;4.388;2023-03-04T03:36:36;6.80;99.90
46400;DHT22;32104;50.838;4.388;2023-03-04T03:39:02;6.80;99.90
46400;DHT22;32104;50.838;4.388;2023-03-04T03:41:28;6.80;99.90
46400;DHT22;32104;50.838;4.388;2023-03-04T03:43:54;6.70;99.90
46400;DHT22;32104;50.838;4.388;2023-03-04T03:46:21;6.70;99.90
46400;DHT22;32104;50.838;4.388;2023-03-04T03:48:47;6.80;99.90
46400;DHT22;32104;50.838;4.388;2023-03-04T03:51:12;6.80;99.90
46400;DHT22;32104;50.838;4.388;2023-03-04T03:53:48;6.80;99.90
46400;DHT22;32104;50.838;4.388;2023-03-04T03:56:14;6.70;99.90
46400;DHT22;32104;50.838;4.388;2023-03-04T03:58:40;6.80;99.90
46400;DHT22;32104;50.838;4.388;2023-03-04T04:01:05;6.80;99.90
46400;DHT22;32104;50.838;4.388;2023-03-04T04:03:31;6.90;99.90
46400;DHT22;32104;50.838;4.388;2023-03-04T04:05:57;6.80;99.90
46400;DHT22;32104;50.838;4.388;2023-03-04T04:08:23;6.70;99.90
46400;DHT22;32104;50.838;4.388;2023-03-04T04:10:48;6.70;99.90
46400;DHT22;32104;50.838;4.388;2023-03-04T04:13:20;6.50;99.90
46400;DHT22;32104;50.838;4.388;2023-03-04T04:15:46;6.50;99.90
46400;DHT22;32104;50.838;4.388;2023-03-04T04:18:12;6.40;99.90
46400;DHT22;32104;50.838;4.388;2023-03-04T04:20:39;6.60;99.90
46400;DHT22;32104;50.838;4.388;2023-03-04T04:23:04;6.70;99.90
46400;DHT22;32104;50.838;4.388;2023-03-04T04:25:30;6.60;99.90
46400;DHT22;32104;50.838;4.388;2023-03-04T04:27:56;6.70;99.90
46400;DHT22;32104;50.838;4.388;2023-03-04T04:30:22;6.60;99.90
46400;DHT22;32104;50.838;4.388;2023-03-04T04:32:47;6.60;99.90
46400;DHT22;32104;50.838;4.388;2023-03-04T04:35:13;6.60;99.90
46400;DHT22;32104;50.838;4.388;2023-03-04T04:37:39;6.80;99.90
46400;DHT22;32104;50.838;4.388;2023-03-04T04:40:11;6.80;99.90
46400;DHT22;32104;50.838;4.388;2023-03-04T04:42:39;6.80;99.90
46400;DHT22;32104;50.838;4.388;2023-03-04T04:45:05;6.70;99.90
46400;DHT22;32104;50.838;4.388;2023-03-04T04:47:34;6.80;99.90
46400;DHT22;32104;50.838;4.388;2023-03-04T04:50:06;6.60;99.90
46400;DHT22;32104;50.838;4.388;2023-03-04T04:52:32;6.60;99.90
46400;DHT22;32104;50.838;4.388;2023-03-04T04:54:58;6.70;99.90
46400;DHT22;32104;50.838;4.388;2023-03-04T04:57:24;6.60;99.90
46400;DHT22;32104;50.838;4.388;2023-03-04T04:59:49;6.60;99.90
46400;DHT22;32104;50.838;4.388;2023-03-04T05:02:15;6.50;99.90
46400;DHT22;32104;50.838;4.388;2023-03-04T05:04:41;6.50;99.90
46400;DHT22;32104;50.838;4.388;2023-03-04T05:07:07;6.40;99.90
46400;DHT22;32104;50.838;4.388;2023-03-04T05:09:34;6.50;99.90
46400;DHT22;32104;50.838;4.388;2023-03-04T05:12:00;6.50;99.90
46400;DHT22;32104;50.838;4.388;2023-03-04T05:14:25;6.50;99.90
46400;DHT22;32104;50.838;4.388;2023-03-04T05:16:51;6.50;99.90
46400;DHT22;32104;50.838;4.388;2023-03-04T05:19:19;6.50;99.90
46400;DHT22;32104;50.838;4.388;2023-03-04T05:21:45;6.60;99.90
46400;DHT22;32104;50.838;4.388;2023-03-04T05:24:10;6.60;99.90
46400;DHT22;32104;50.838;4.388;2023-03-04T05:26:36;6.60;99.90
46400;DHT22;32104;50.838;4.388;2023-03-04T05:29:03;6.60;99.90
46400;DHT22;32104;50.838;4.388;2023-03-04T05:31:29;6.60;99.90
46400;DHT22;32104;50.838;4.388;2023-03-04T05:33:55;6.50;99.90
46400;DHT22;32104;50.838;4.388;2023-03-04T05:36:21;6.50;99.90
46400;DHT22;32104;50.838;4.388;2023-03-04T05:38:47;6.50;99.90
46400;DHT22;32104;50.838;4.388;2023-03-04T05:41:16;6.50;99.90
46400;DHT22;32104;50.838;4.388;2023-03-04T05:43:44;6.50;99.90
46400;DHT22;32104;50.838;4.388;2023-03-04T05:46:16;6.70;99.90
46400;DHT22;32104;50.838;4.388;2023-03-04T05:48:43;6.70;99.90
46400;DHT22;32104;50.838;4.388;2023-03-04T05:51:09;6.60;99.90
46400;DHT22;32104;50.838;4.388;2023-03-04T05:53:36;6.70;99.90
46400;DHT22;32104;50.838;4.388;2023-03-04T05:56:09;6.70;99.90
46400;DHT22;32104;50.838;4.388;2023-03-04T05:58:35;6.70;99.90
46400;DHT22;32104;50.838;4.388;2023-03-04T06:01:02;6.70;99.90
46400;DHT22;32104;50.838;4.388;2023-03-04T06:03:28;6.70;99.90
46400;DHT22;32104;50.838;4.388;2023-03-04T06:05:54;6.70;99.90
46400;DHT22;32104;50.838;4.388;2023-03-04T06:08:20;6.60;99.90
46400;DHT22;32104;50.838;4.388;2023-03-04T06:10:50;6.60;99.90
46400;DHT22;32104;50.838;4.388;2023-03-04T06:13:18;6.50;99.90
46400;DHT22;32104;50.838;4.388;2023-03-04T06:15:44;6.60;99.90
46400;DHT22;32104;50.838;4.388;2023-03-04T06:18:10;6.50;99.90
46400;DHT22;32104;50.838;4.388;2023-03-04T06:20:36;6.60;99.90
46400;DHT22;32104;50.838;4.388;2023-03-04T06:23:03;6.80;99.90
46400;DHT22;32104;50.838;4.388;2023-03-04T06:25:29;6.80;99.90
46400;DHT22;32104;50.838;4.388;2023-03-04T06:27:55;6.80;99.90
46400;DHT22;32104;50.838;4.388;2023-03-04T06:30:21;6.80;99.90
46400;DHT22;32104;50.838;4.388;2023-03-04T06:32:47;6.70;99.90
46400;DHT22;32104;50.838;4.388;2023-03-04T06:35:13;6.50;99.90
46400;DHT22;32104;50.838;4.388;2023-03-04T06:37:40;6.50;99.90
46400;DHT22;32104;50.838;4.388;2023-03-04T06:40:10;6.50;99.90
46400;DHT22;32104;50.838;4.388;2023-03-04T06:42:37;6.60;99.90
46400;DHT22;32104;50.838;4.388;2023-03-04T06:45:03;6.60;99.90
46400;DHT22;32104;50.838;4.388;2023-03-04T06:47:29;6.60;99.90
46400;DHT22;32104;50.838;4.388;2023-03-04T06:49:55;6.60;99.90
46400;DHT22;32104;50.838;4.388;2023-03-04T06:52:21;6.60;99.90
46400;DHT22;32104;50.838;4.388;2023-03-04T06:54:47;6.70;99.90
46400;DHT22;32104;50.838;4.388;2023-03-04T06:57:14;6.60;99.90
46400;DHT22;32104;50.838;4.388;2023-03-04T06:59:39;6.60;99.90
46400;DHT22;32104;50.838;4.388;2023-03-04T07:02:06;6.60;99.90
46400;DHT22;32104;50.838;4.388;2023-03-04T07:04:33;6.60;99.90
46400;DHT22;32104;50.838;4.388;2023-03-04T07:06:59;6.60;99.90
46400;DHT22;32104;50.838;4.388;2023-03-04T07:09:25;6.70;99.90
46400;DHT22;32104;50.838;4.388;2023-03-04T07:11:51;6.70;99.90
46400;DHT22;32104;50.838;4.388;2023-03-04T07:14:19;6.70;99.90
46400;DHT22;32104;50.838;4.388;2023-03-04T07:16:48;6.70;99.90
46400;DHT22;32104;50.838;4.388;2023-03-04T07:19:13;6.60;99.90
46400;DHT22;32104;50.838;4.388;2023-03-04T07:21:42;6.70;99.90
46400;DHT22;32104;50.838;4.388;2023-03-04T07:24:15;6.70;99.90
46400;DHT22;32104;50.838;4.388;2023-03-04T07:26:47;6.70;99.90
46400;DHT22;32104;50.838;4.388;2023-03-04T07:29:17;6.70;99.90
46400;DHT22;32104;50.838;4.388;2023-03-04T07:31:49;6.60;99.90
46400;DHT22;32104;50.838;4.388;2023-03-04T07:34:15;6.60;99.90
46400;DHT22;32104;50.838;4.388;2023-03-04T07:36:41;6.70;99.90
46400;DHT22;32104;50.838;4.388;2023-03-04T07:39:09;6.60;99.90
46400;DHT22;32104;50.838;4.388;2023-03-04T07:41:38;6.60;99.90
46400;DHT22;32104;50.838;4.388;2023-03-04T07:44:06;6.50;99.90
46400;DHT22;32104;50.838;4.388;2023-03-04T07:46:34;6.50;99.90
46400;DHT22;32104;50.838;4.388;2023-03-04T07:49:01;6.40;99.90
46400;DHT22;32104;50.838;4.388;2023-03-04T07:51:31;6.50;99.90
46400;DHT22;32104;50.838;4.388;2023-03-04T07:54:00;6.60;99.90
46400;DHT22;32104;50.838;4.388;2023-03-04T07:56:30;6.70;99.90
46400;DHT22;32104;50.838;4.388;2023-03-04T07:59:01;6.80;99.90
46400;DHT22;32104;50.838;4.388;2023-03-04T08:01:34;6.70;99.90
46400;DHT22;32104;50.838;4.388;2023-03-04T08:04:07;6.70;99.90
46400;DHT22;32104;50.838;4.388;2023-03-04T08:06:55;6.60;99.90
46400;DHT22;32104;50.838;4.388;2023-03-04T08:09:22;6.90;99.90
46400;DHT22;32104;50.838;4.388;2023-03-04T08:11:53;6.90;99.90
46400;DHT22;32104;50.838;4.388;2023-03-04T08:14:48;6.90;99.90
46400;DHT22;32104;50.838;4.388;2023-03-04T08:17:17;6.80;99.90
46400;DHT22;32104;50.838;4.388;2023-03-04T08:19:49;6.60;99.90
46400;DHT22;32104;50.838;4.388;2023-03-04T08:22:29;6.80;99.90
46400;DHT22;32104;50.838;4.388;2023-03-04T08:25:04;6.80;99.90
46400;DHT22;32104;50.838;4.388;2023-03-04T08:27:30;6.80;99.90
46400;DHT22;32104;50.838;4.388;2023-03-04T08:30:02;6.70;99.90
46400;DHT22;32104;50.838;4.388;2023-03-04T08:32:34;6.70;99.90
46400;DHT22;32104;50.838;4.388;2023-03-04T08:35:08;6.70;99.90
46400;DHT22;32104;50.838;4.388;2023-03-04T08:40:20;6.60;99.90
46400;DHT22;32104;50.838;4.388;2023-03-04T08:42:54;6.60;99.90
46400;DHT22;32104;50.838;4.388;2023-03-04T08:45:20;6.70;99.90
46400;DHT22;32104;50.838;4.388;2023-03-04T08:48:00;6.80;99.90
46400;DHT22;32104;50.838;4.388;2023-03-04T08:50:29;6.80;99.90
46400;DHT22;32104;50.838;4.388;2023-03-04T08:52:58;6.80;99.90
46400;DHT22;32104;50.838;4.388;2023-03-04T08:55:24;6.90;99.90
46400;DHT22;32104;50.838;4.388;2023-03-04T08:57:50;6.90;99.90
46400;DHT22;32104;50.838;4.388;2023-03-04T09:00:16;6.90;99.90
46400;DHT22;32104;50.838;4.388;2023-03-04T09:02:42;7.00;99.90
46400;DHT22;32104;50.838;4.388;2023-03-04T09:05:16;7.10;99.90
46400;DHT22;32104;50.838;4.388;2023-03-04T09:07:49;7.10;99.90
46400;DHT22;32104;50.838;4.388;2023-03-04T09:10:28;7.20;99.90
46400;DHT22;32104;50.838;4.388;2023-03-04T09:12:59;7.20;99.90
46400;DHT22;32104;50.838;4.388;2023-03-04T09:15:29;7.00;99.90
46400;DHT22;32104;50.838;4.388;2023-03-04T09:18:02;6.90;99.90
46400;DHT22;32104;50.838;4.388;2023-03-04T09:20:31;6.90;99.90
46400;DHT22;32104;50.838;4.388;2023-03-04T09:23:19;6.90;99.90
46400;DHT22;32104;50.838;4.388;2023-03-04T09:26:29;6.80;99.90
46400;DHT22;32104;50.838;4.388;2023-03-04T09:29:31;6.80;99.90
46400;DHT22;32104;50.838;4.388;2023-03-04T09:32:11;6.80;99.90
46400;DHT22;32104;50.838;4.388;2023-03-04T09:34:49;6.80;99.90
46400;DHT22;32104;50.838;4.388;2023-03-04T09:37:41;6.70;99.90
46400;DHT22;32104;50.838;4.388;2023-03-04T09:40:23;6.80;99.90
46400;DHT22;32104;50.838;4.388;2023-03-04T09:43:24;6.90;99.90
46400;DHT22;32104;50.838;4.388;2023-03-04T09:46:21;6.90;99.90
46400;DHT22;32104;50.838;4.388;2023-03-04T10:01:59;7.10;99.90
46400;DHT22;32104;50.838;4.388;2023-03-04T10:11:13;6.90;99.90
46400;DHT22;32104;50.838;4.388;2023-03-04T10:20:22;7.00;99.90
46400;DHT22;32104;50.838;4.388;2023-03-04T10:26:28;7.40;99.90
46400;DHT22;32104;50.838;4.388;2023-03-04T10:29:23;7.40;99.90
46400;DHT22;32104;50.838;4.388;2023-03-04T10:32:23;7.50;99.90
46400;DHT22;32104;50.838;4.388;2023-03-04T10:35:22;7.60;99.90
46400;DHT22;32104;50.838;4.388;2023-03-04T10:38:14;7.70;99.90
46400;DHT22;32104;50.838;4.388;2023-03-04T10:40:47;7.50;99.90
46400;DHT22;32104;50.838;4.388;2023-03-04T10:43:40;7.50;99.90
46400;DHT22;32104;50.838;4.388;2023-03-04T10:46:28;7.60;99.90
46400;DHT22;32104;50.838;4.388;2023-03-04T10:48:55;7.50;99.90
46400;DHT22;32104;50.838;4.388;2023-03-04T10:51:26;7.40;99.90
46400;DHT22;32104;50.838;4.388;2023-03-04T10:54:37;7.40;99.90
46400;DHT22;32104;50.838;4.388;2023-03-04T11:02:46;7.80;99.90
46400;DHT22;32104;50.838;4.388;2023-03-04T11:07:52;7.80;99.90
46400;DHT22;32104;50.838;4.388;2023-03-04T11:10:22;7.90;99.90
46400;DHT22;32104;50.838;4.388;2023-03-04T11:15:50;8.00;99.90
46400;DHT22;32104;50.838;4.388;2023-03-04T11:18:44;7.90;99.90
46400;DHT22;32104;50.838;4.388;2023-03-04T11:21:26;7.90;99.90
46400;DHT22;32104;50.838;4.388;2023-03-04T11:24:18;7.80;99.90
46400;DHT22;32104;50.838;4.388;2023-03-04T11:26:57;7.70;99.90
46400;DHT22;32104;50.838;4.388;2023-03-04T11:35:04;7.70;99.90
46400;DHT22;32104;50.838;4.388;2023-03-04T11:37:46;7.80;99.90
46400;DHT22;32104;50.838;4.388;2023-03-04T11:41:05;7.90;99.90
46400;DHT22;32104;50.838;4.388;2023-03-04T12:14:45;8.80;99.90
46400;DHT22;32104;50.838;4.388;2023-03-04T12:20:26;8.70;99.90
46400;DHT22;32104;50.838;4.388;2023-03-04T12:23:18;8.70;99.90
46400;DHT22;32104;50.838;4.388;2023-03-04T12:32:12;8.20;99.90
46400;DHT22;32104;50.838;4.388;2023-03-04T12:43:34;8.50;99.90
46400;DHT22;32104;50.838;4.388;2023-03-04T12:46:30;8.70;99.90
46400;DHT22;32104;50.838;4.388;2023-03-04T12:55:13;8.80;99.90
46400;DHT22;32104;50.838;4.388;2023-03-04T12:57:47;8.70;99.90
46400;DHT22;32104;50.838;4.388;2023-03-04T13:09:30;9.10;99.90
46400;DHT22;32104;50.838;4.388;2023-03-04T13:12:17;9.00;99.90
46400;DHT22;32104;50.838;4.388;2023-03-04T13:26:36;8.60;99.90
46400;DHT22;32104;50.838;4.388;2023-03-04T13:32:40;8.50;99.90
46400;DHT22;32104;50.838;4.388;2023-03-04T13:41:14;8.40;99.90
46400;DHT22;32104;50.838;4.388;2023-03-04T13:47:31;8.40;99.90
46400;DHT22;32104;50.838;4.388;2023-03-04T13:59:56;9.00;99.90
46400;DHT22;32104;50.838;4.388;2023-03-04T14:02:48;8.90;99.90
46400;DHT22;32104;50.838;4.388;2023-03-04T14:05:27;8.60;99.90
46400;DHT22;32104;50.838;4.388;2023-03-04T14:07:55;8.60;99.90
46400;DHT22;32104;50.838;4.388;2023-03-04T14:10:23;8.60;99.90
46400;DHT22;32104;50.838;4.388;2023-03-04T14:13:08;8.70;99.90
46400;DHT22;32104;50.838;4.388;2023-03-04T14:15:34;8.60;99.90
46400;DHT22;32104;50.838;4.388;2023-03-04T14:18:03;8.60;99.90
46400;DHT22;32104;50.838;4.388;2023-03-04T14:20:37;8.70;99.90
46400;DHT22;32104;50.838;4.388;2023-03-04T14:23:33;8.70;99.90
46400;DHT22;32104;50.838;4.388;2023-03-04T14:26:20;8.80;99.90
46400;DHT22;32104;50.838;4.388;2023-03-04T14:28:51;8.90;99.90
46400;DHT22;32104;50.838;4.388;2023-03-04T14:31:22;8.90;99.90
46400;DHT22;32104;50.838;4.388;2023-03-04T14:34:01;8.90;99.90
46400;DHT22;32104;50.838;4.388;2023-03-04T14:36:33;8.90;99.90
46400;DHT22;32104;50.838;4.388;2023-03-04T14:39:05;8.80;99.90
46400;DHT22;32104;50.838;4.388;2023-03-04T14:41:37;8.70;99.90
46400;DHT22;32104;50.838;4.388;2023-03-04T14:44:39;8.70;99.90
46400;DHT22;32104;50.838;4.388;2023-03-04T14:47:23;8.70;99.90
46400;DHT22;32104;50.838;4.388;2023-03-04T14:56:25;8.60;99.90
46400;DHT22;32104;50.838;4.388;2023-03-04T14:59:02;8.60;99.90
46400;DHT22;32104;50.838;4.388;2023-03-04T15:01:36;8.40;99.90
46400;DHT22;32104;50.838;4.388;2023-03-04T15:04:28;8.30;99.90
46400;DHT22;32104;50.838;4.388;2023-03-04T15:07:11;8.20;99.90
46400;DHT22;32104;50.838;4.388;2023-03-04T15:10:04;8.20;99.90
46400;DHT22;32104;50.838;4.388;2023-03-04T15:13:18;8.10;99.90
46400;DHT22;32104;50.838;4.388;2023-03-04T15:16:15;8.20;99.90
46400;DHT22;32104;50.838;4.388;2023-03-04T15:19:01;8.10;99.90
46400;DHT22;32104;50.838;4.388;2023-03-04T15:22:10;8.10;99.90
46400;DHT22;32104;50.838;4.388;2023-03-04T15:24:43;8.40;99.90
46400;DHT22;32104;50.838;4.388;2023-03-04T15:27:10;8.50;99.90
46400;DHT22;32104;50.838;4.388;2023-03-04T15:29:58;8.40;99.90
46400;DHT22;32104;50.838;4.388;2023-03-04T15:32:30;8.40;99.90
46400;DHT22;32104;50.838;4.388;2023-03-04T15:34:56;8.40;99.90
46400;DHT22;32104;50.838;4.388;2023-03-04T15:37:41;8.50;99.90
46400;DHT22;32104;50.838;4.388;2023-03-04T15:43:17;8.60;99.90
46400;DHT22;32104;50.838;4.388;2023-03-04T15:45:45;8.70;99.90
46400;DHT22;32104;50.838;4.388;2023-03-04T15:48:29;8.80;99.90
46400;DHT22;32104;50.838;4.388;2023-03-04T15:50:57;8.90;99.90
46400;DHT22;32104;50.838;4.388;2023-03-04T15:53:34;8.90;99.90
46400;DHT22;32104;50.838;4.388;2023-03-04T15:56:07;8.80;99.90
46400;DHT22;32104;50.838;4.388;2023-03-04T15:58:46;8.80;99.90
46400;DHT22;32104;50.838;4.388;2023-03-04T16:01:16;8.80;99.90
46400;DHT22;32104;50.838;4.388;2023-03-04T16:03:48;8.80;99.90
46400;DHT22;32104;50.838;4.388;2023-03-04T16:06:14;8.80;99.90
46400;DHT22;32104;50.838;4.388;2023-03-04T16:08:56;8.70;99.90
46400;DHT22;32104;50.838;4.388;2023-03-04T16:11:22;8.70;99.90
46400;DHT22;32104;50.838;4.388;2023-03-04T16:13:49;8.70;99.90
46400;DHT22;32104;50.838;4.388;2023-03-04T16:16:15;8.70;99.90
46400;DHT22;32104;50.838;4.388;2023-03-04T16:18:42;8.70;99.90
46400;DHT22;32104;50.838;4.388;2023-03-04T16:21:23;8.80;99.90
46400;DHT22;32104;50.838;4.388;2023-03-04T16:23:49;8.80;99.90
46400;DHT22;32104;50.838;4.388;2023-03-04T16:26:28;8.90;99.90
46400;DHT22;32104;50.838;4.388;2023-03-04T16:28:59;8.90;99.90
46400;DHT22;32104;50.838;4.388;2023-03-04T16:31:30;8.80;99.90
46400;DHT22;32104;50.838;4.388;2023-03-04T16:33:58;8.60;99.90
46400;DHT22;32104;50.838;4.388;2023-03-04T16:36:24;8.60;99.90
46400;DHT22;32104;50.838;4.388;2023-03-04T16:38:54;8.60;99.90
46400;DHT22;32104;50.838;4.388;2023-03-04T16:41:32;8.60;99.90
46400;DHT22;32104;50.838;4.388;2023-03-04T16:44:02;8.40;99.90
46400;DHT22;32104;50.838;4.388;2023-03-04T16:46:33;8.30;99.90
46400;DHT22;32104;50.838;4.388;2023-03-04T16:48:59;8.30;99.90
46400;DHT22;32104;50.838;4.388;2023-03-04T16:51:24;8.30;99.90
46400;DHT22;32104;50.838;4.388;2023-03-04T16:53:54;8.30;99.90
46400;DHT22;32104;50.838;4.388;2023-03-04T16:56:20;8.30;99.90
46400;DHT22;32104;50.838;4.388;2023-03-04T16:58:46;8.30;99.90
46400;DHT22;32104;50.838;4.388;2023-03-04T17:01:15;8.30;99.90
46400;DHT22;32104;50.838;4.388;2023-03-04T17:03:43;8.30;99.90
46400;DHT22;32104;50.838;4.388;2023-03-04T17:06:09;8.30;99.90
46400;DHT22;32104;50.838;4.388;2023-03-04T17:08:35;8.20;99.90
46400;DHT22;32104;50.838;4.388;2023-03-04T17:11:01;8.20;99.90
46400;DHT22;32104;50.838;4.388;2023-03-04T17:13:26;8.20;99.90
46400;DHT22;32104;50.838;4.388;2023-03-04T17:15:52;8.20;99.90
46400;DHT22;32104;50.838;4.388;2023-03-04T17:18:25;8.00;99.90
46400;DHT22;32104;50.838;4.388;2023-03-04T17:20:53;8.20;99.90
46400;DHT22;32104;50.838;4.388;2023-03-04T17:23:19;8.20;99.90
46400;DHT22;32104;50.838;4.388;2023-03-04T17:25:44;8.20;99.90
46400;DHT22;32104;50.838;4.388;2023-03-04T17:28:10;8.10;99.90
46400;DHT22;32104;50.838;4.388;2023-03-04T17:30:35;8.10;99.90
46400;DHT22;32104;50.838;4.388;2023-03-04T17:33:02;8.20;99.90
46400;DHT22;32104;50.838;4.388;2023-03-04T17:35:31;8.20;99.90
46400;DHT22;32104;50.838;4.388;2023-03-04T17:37:58;8.30;99.90
46400;DHT22;32104;50.838;4.388;2023-03-04T17:40:27;8.20;99.90
46400;DHT22;32104;50.838;4.388;2023-03-04T17:42:58;8.30;99.90
46400;DHT22;32104;50.838;4.388;2023-03-04T17:45:42;8.40;99.90
46400;DHT22;32104;50.838;4.388;2023-03-04T17:48:08;8.30;99.90
46400;DHT22;32104;50.838;4.388;2023-03-04T17:53:56;8.10;99.90
46400;DHT22;32104;50.838;4.388;2023-03-04T17:56:26;8.10;99.90
46400;DHT22;32104;50.838;4.388;2023-03-04T17:58:54;8.00;99.90
46400;DHT22;32104;50.838;4.388;2023-03-04T18:01:25;8.00;99.90
46400;DHT22;32104;50.838;4.388;2023-03-04T18:03:54;8.10;99.90
46400;DHT22;32104;50.838;4.388;2023-03-04T18:06:22;8.10;99.90
46400;DHT22;32104;50.838;4.388;2023-03-04T18:08:50;8.00;99.90
46400;DHT22;32104;50.838;4.388;2023-03-04T18:11:19;8.10;99.90
46400;DHT22;32104;50.838;4.388;2023-03-04T18:13:45;8.00;99.90
46400;DHT22;32104;50.838;4.388;2023-03-04T18:16:15;8.20;99.90
46400;DHT22;32104;50.838;4.388;2023-03-04T18:18:49;8.20;99.90
46400;DHT22;32104;50.838;4.388;2023-03-04T18:21:15;8.20;99.90
46400;DHT22;32104;50.838;4.388;2023-03-04T18:23:51;8.10;99.90
46400;DHT22;32104;50.838;4.388;2023-03-04T18:26:17;7.90;99.90
46400;DHT22;32104;50.838;4.388;2023-03-04T18:31:39;7.70;99.90
46400;DHT22;32104;50.838;4.388;2023-03-04T18:34:05;7.70;99.90
46400;DHT22;32104;50.838;4.388;2023-03-04T18:36:31;7.90;99.90
46400;DHT22;32104;50.838;4.388;2023-03-04T18:39:03;7.90;99.90
46400;DHT22;32104;50.838;4.388;2023-03-04T18:44:41;7.70;99.90
46400;DHT22;32104;50.838;4.388;2023-03-04T18:47:07;7.60;99.90
46400;DHT22;32104;50.838;4.388;2023-03-04T18:49:37;7.60;99.90
46400;DHT22;32104;50.838;4.388;2023-03-04T18:52:05;7.60;99.90
46400;DHT22;32104;50.838;4.388;2023-03-04T18:54:39;7.50;99.90
46400;DHT22;32104;50.838;4.388;2023-03-04T18:57:11;7.60;99.90
46400;DHT22;32104;50.838;4.388;2023-03-04T18:59:54;7.70;99.90
46400;DHT22;32104;50.838;4.388;2023-03-04T19:02:24;7.70;99.90
46400;DHT22;32104;50.838;4.388;2023-03-04T19:04:55;7.60;99.90
46400;DHT22;32104;50.838;4.388;2023-03-04T19:07:26;7.70;99.90